WetterOnline ( https://www.wetteronline.de )

Wetter aktuell Voltino

Aktuelles Wetter: Paganella (2129m)

6-stündlich | Neueste Meldungen
Ortszeit Temperatur Wetter
Di, 28.09. 14:00 11.8° C leicht bewölkt
Di, 28.09. 8:00 12.4° C wolkenlos
Di, 28.09. 2:00 8.0° C wolkenlos
Mo, 27.09. 20:00 9.5° C wolkig
Mo, 27.09. 14:00 9.4° C leicht bewölkt
Mo, 27.09. 8:00 6.6° C fast wolkenlos
Mo, 27.09. 2:00 7.2° C wolkenlos
So, 26.09. 20:00 8.0° C leichter Regen
Ortszeit Temperatur Wetter
Di, 28.09. 19:00 8.4° C wolkig
Di, 28.09. 18:00 8.8° C wolkig
Di, 28.09. 17:55 9° C leicht bewölkt
Di, 28.09. 17:00 9.8° C leicht bewölkt
Di, 28.09. 16:55 10° C leicht bewölkt
Di, 28.09. 16:00 10.2° C wolkig
Di, 28.09. 15:55 10° C leicht bewölkt
Di, 28.09. 15:00 11.4° C leicht bewölkt
Ortszeit Relative Feuchte Sichtweite
Di, 28.09. 14:00 56% 70 km
Di, 28.09. 8:00 69% 70 km
Di, 28.09. 2:00 70% 40 km
Mo, 27.09. 20:00 76% 40 km
Mo, 27.09. 14:00 64% 10 km
Mo, 27.09. 8:00 88% 50 km
Mo, 27.09. 2:00 85% 50 km
So, 26.09. 20:00 100% <100 m
Ortszeit Relative Feuchte Sichtweite
Di, 28.09. 19:00 77% 50 km
Di, 28.09. 18:00 70% 60 km
Di, 28.09. 17:55 71% >10 km
Di, 28.09. 17:00 70% 60 km
Di, 28.09. 16:55 71% >10 km
Di, 28.09. 16:00 70% 60 km
Di, 28.09. 15:55 71% >10 km
Di, 28.09. 15:00 62% 70 km
Ortszeit Niederschlagsmenge Niederschlagsart
Di, 28.09. 14:00 0.0 l/m2 in 6 Std. -
Di, 28.09. 8:00 0.0 l/m2 in 12 Std. -
Di, 28.09. 2:00 0.0 l/m2 in 6 Std. -
Mo, 27.09. 20:00 0.0 l/m2 in 12 Std. -
Mo, 27.09. 14:00 0.0 l/m2 in 6 Std. -
Mo, 27.09. 8:00 0.4 l/m2 in 12 Std. Nebel
Mo, 27.09. 2:00 0.4 l/m2 in 6 Std. Regen, Nebel
So, 26.09. 20:00 3 l/m2 in 12 Std. Regen, Nebel
Ortszeit Niederschlagsmenge Niederschlagsart
Di, 28.09. 19:00 keine Meldung -
Di, 28.09. 18:00 keine Meldung -
Di, 28.09. 17:55 keine Meldung -
Di, 28.09. 17:00 keine Meldung -
Di, 28.09. 16:55 keine Meldung -
Di, 28.09. 16:00 keine Meldung -
Di, 28.09. 15:55 keine Meldung -
Di, 28.09. 15:00 keine Meldung -
Ortszeit Stärke Spitze Richtung
km/h Bft. km/h Grad Sektor
Di, 28.09. 14:00 15 3 - 170° S
Di, 28.09. 8:00 22 4 - 40° NO
Di, 28.09. 2:00 17 3 - 20° N
Mo, 27.09. 20:00 11 2 - 10° N
Mo, 27.09. 14:00 6 1 - 30° NO
Mo, 27.09. 8:00 24 4 - 10° N
Mo, 27.09. 2:00 11 2 - 250° W
So, 26.09. 20:00 22 4 - 180° S
Ortszeit Stärke Spitze Richtung
km/h Bft. km/h Grad Sektor
Di, 28.09. 19:00 30 5 - 220° SW
Di, 28.09. 18:00 33 5 - 230° SW
Di, 28.09. 17:55 33 5 - 230° SW
Di, 28.09. 17:00 31 5 - 220° SW
Di, 28.09. 16:55 31 5 - 220° SW
Di, 28.09. 16:00 24 4 - 220° SW
Di, 28.09. 15:55 24 4 - 220° SW
Di, 28.09. 15:00 20 4 - 200° S
Ortszeit Untergrenze Bedeckung Gattung
total tief tief mittel hoch
Di, 28.09. 14:00 900 m 4/8 2/8 Cu - Ci
Di, 28.09. 8:00 - 0/8 0/8 - - -
Di, 28.09. 2:00 - 0/8 0/8 - - -
Mo, 27.09. 20:00 750 m 7/8 1/8 Sc Ac Cs
Mo, 27.09. 14:00 <30 m 4/8 3/8 Cu - Ci
Mo, 27.09. 8:00 1800 m 1/8 1/8 - Ac -
Mo, 27.09. 2:00 - 0/8 0/8 - - -
So, 26.09. 20:00 - 8/8 - - - -
Ortszeit Bedeckungsgrad in Achtel und Wolkenuntergrenze
Di, 28.09. 19:00 2(600m) 3(900m)
Di, 28.09. 18:00 2(600m) 3(900m)
Di, 28.09. 17:55 1-2(600m) 3-4(900m)
Di, 28.09. 17:00 2(750m) 3(4200m)
Di, 28.09. 16:55 1-2(750m)
Di, 28.09. 16:00 2(750m) 3(4200m)
Di, 28.09. 15:55 1-2(750m)
Di, 28.09. 15:00 2(900m)
Ortszeit Stationsdruck (hPa) Tendenz (hPa in 3 Std.)
Di, 28.09. 14:00 794 0,0
Di, 28.09. 8:00 793 + 1,4
Di, 28.09. 2:00 793 + 0,5
Mo, 27.09. 20:00 792 + 0,8
Mo, 27.09. 14:00 791 + 0,2
Mo, 27.09. 8:00 790 - 0,1
Mo, 27.09. 2:00 791 - 0,6
So, 26.09. 20:00 791 - 1,0
Ortszeit Stationsdruck (hPa) Tendenz (hPa in 3 Std.)
Di, 28.09. 19:00 793 - 0,6
Di, 28.09. 18:00 793 - 0,8
Di, 28.09. 17:55 - keine Meldung
Di, 28.09. 17:00 793 - 0,7
Di, 28.09. 16:55 - keine Meldung
Di, 28.09. 16:00 793 + 0,3
Di, 28.09. 15:55 - keine Meldung
Di, 28.09. 15:00 794 - 0,2
Ortszeit Schneehöhe (cm)
Di, 28.09. 14:00 -
Di, 28.09. 8:00 0
Di, 28.09. 2:00 -
Mo, 27.09. 20:00 -
Mo, 27.09. 14:00 -
Mo, 27.09. 8:00 0
Mo, 27.09. 2:00 -
So, 26.09. 20:00 -
Ortszeit Schneehöhe (cm)
Di, 28.09. 19:00 -
Di, 28.09. 18:00 -
Di, 28.09. 17:55 -
Di, 28.09. 17:00 -
Di, 28.09. 16:55 -
Di, 28.09. 16:00 -
Di, 28.09. 15:55 -
Di, 28.09. 15:00 -
Link zu dieser Seite / Seite empfehlen

Das Wetter in ...